Latest Coastal Weather Observations for Lockhart River

IDQ60701

Issued at 2:21 pm EST Tuesday 26 May 2020 (issued every 10 minutes, with the page automatically refreshed every 10 minutes)

About coastal observations | Map of coastal stations | Coastal observations for QLD | Marine services | Other Formats
Station Details ID: 028008 Name: LOCKHART RIVER AIRPORT Lat: -12.79 Lon: 143.30 Height: 18.5 m
Data from the previous 72 hours. | See also: Recent months at Lockhart River
Date/Time
EST
Wind Sea
Height
m
Swell Vis
km
Cloud Weather Temp
°C
Press
hPa
Rain since
9am
mm
Dir  Spd
kts
Gust
kts
Height
m
Period
s
Dir
26/02:00pm E 10 15 - - - - 10 Partly cloudy - 26.4 1014.8 0.0
26/01:30pm ESE 12 17 - - - - 10 Partly cloudy - 26.9 1015.2 0.0
26/01:00pm ESE 11 17 - - - - 10 Partly cloudy - 25.7 1015.4 0.0
26/12:30pm ESE 9 14 - - - - 10 Partly cloudy - 27.6 1015.8 0.0
26/12:00pm E 11 15 - - - - 10 Partly cloudy - 26.7 1016.3 0.0
26/11:30am ESE 11 15 - - - - 10 Partly cloudy - 26.5 1016.7 0.0
26/11:00am ESE 9 14 - - - - 10 Partly cloudy - 26.6 1017.0 0.0
26/10:30am SE 9 14 - - - - 10 Partly cloudy - 27.3 1017.3 0.0
26/10:00am SE 8 11 - - - - 10 Partly cloudy - 25.4 1017.5 0.0
26/09:30am SSE 4 7 - - - - 10 Partly cloudy - 25.6 1017.6 0.0
26/09:00am SE 5 7 - - - - 10 Cloudy - 23.7 1017.5 0.0
26/08:30am NNE 1 5 - - - - 10 Partly cloudy - 22.6 1017.3 0.0
26/08:00am CALM 0 0 - - - - 10 Partly cloudy - 21.2 1017.0 0.0
26/07:30am CALM 0 0 - - - - 10 Partly cloudy - 20.5 1016.8 0.0
26/07:00am CALM 0 0 - - - - 10 Partly cloudy - 20.0 1016.5 0.0
26/06:30am CALM 0 0 - - - - 10 Partly cloudy - 19.7 1016.1 0.0
26/06:00am CALM 0 0 - - - - 10 Mostly cloudy - 19.5 1016.0 0.0
26/05:30am CALM 0 0 - - - - 10 Partly cloudy - 19.4 1015.7 0.0
26/05:00am CALM 0 0 - - - - 10 Cloudy - 19.7 1015.5 0.0
26/04:30am CALM 0 0 - - - - 10 Cloudy - 19.7 1015.5 0.0
26/04:00am CALM 0 0 - - - - 10 Cloudy - 19.6 1015.2 0.0
26/03:30am CALM 0 0 - - - - 10 Partly cloudy - 19.6 1015.3 0.0
26/03:00am CALM 0 0 - - - - 10 Mostly cloudy - 19.7 1015.5 0.0
26/02:30am CALM 0 0 - - - - 10 Partly cloudy - 19.8 1015.6 0.0
26/02:00am CALM 0 0 - - - - 10 Partly cloudy - 20.3 1015.6 0.0
26/01:30am CALM 0 0 - - - - 10 Partly cloudy - 20.8 1015.9 0.0
26/01:00am CALM 0 0 - - - - 10 Partly cloudy - 20.6 1015.9 0.0
26/12:30am CALM 0 0 - - - - 10 Partly cloudy - 20.3 1015.9 0.0
26/12:00am CALM 0 0 - - - - 10 Mostly cloudy - 20.3 1016.0 0.0
 
Date/Time
EST
Wind Sea
Height
m
Swell Vis
km
Cloud Weather Temp
°C
Press
hPa
Rain since
9am
mm
Dir  Spd
kts
Gust
kts
Height
m
Period
s
Dir
25/11:30pm CALM 0 0 - - - - 10 Partly cloudy - 20.4 1016.3 0.0
25/11:00pm CALM 0 0 - - - - 10 Partly cloudy - 21.1 1016.6 0.0
25/10:30pm CALM 0 0 - - - - 10 Partly cloudy - 21.7 1016.8 0.0
25/10:00pm CALM 0 0 - - - - 10 Partly cloudy - 22.0 1016.6 0.0
25/09:30pm CALM 0 0 - - - - 10 Cloudy - 21.8 1016.7 0.0
25/09:00pm CALM 0 0 - - - - 10 Cloudy - 21.7 1016.6 0.0
25/08:30pm CALM 0 0 - - - - 10 Partly cloudy - 21.7 1016.6 0.0
25/08:00pm CALM 0 0 - - - - 10 Cloudy - 21.4 1016.4 0.0
25/07:30pm CALM 0 0 - - - - 10 Partly cloudy - 21.6 1015.7 0.0
25/07:00pm SE 3 5 - - - - 10 Partly cloudy - 22.6 1015.3 0.0
25/06:30pm SSE 5 6 - - - - 10 Partly cloudy - 23.0 1015.2 0.0
25/06:00pm SE 6 7 - - - - 10 Cloudy - 24.0 1015.0 0.0
25/05:30pm SE 7 9 - - - - 10 Partly cloudy - 24.2 1014.9 0.0
25/05:00pm SSE 8 11 - - - - 10 Partly cloudy - 24.3 1014.6 0.0
25/04:30pm SE 9 12 - - - - 10 Partly cloudy - 24.7 1014.3 0.0
25/04:00pm ESE 10 13 - - - - 10 Partly cloudy - 24.4 1014.3 0.0
25/03:30pm ESE 8 12 - - - - 10 Cloudy - 24.7 1014.0 0.0
25/03:00pm ESE 8 11 - - - - 10 Cloudy - 25.1 1014.0 0.0
25/02:30pm ESE 9 13 - - - - 10 Partly cloudy - 25.6 1014.2 0.0
25/02:00pm ESE 9 14 - - - - 10 Partly cloudy - 26.0 1014.4 0.0
25/01:30pm ESE 8 12 - - - - 10 Partly cloudy - 25.9 1014.9 0.0
25/01:00pm E 9 13 - - - - 10 Partly cloudy - 25.8 1015.3 0.0
25/12:30pm SE 8 14 - - - - 10 Cloudy - 25.4 1015.9 0.0
25/12:00pm SE 9 12 - - - - 10 - - 25.2 1016.4 0.0
25/11:30am SE 9 14 - - - - 10 - - 24.9 1016.7 0.0
25/11:00am SE 7 10 - - - - 10 - - 24.3 1017.1 0.0
25/10:30am S 7 9 - - - - 10 - - 23.6 1017.5 0.0
25/10:00am S 7 11 - - - - 10 - - 22.9 1017.6 0.0
25/09:30am SSE 7 11 - - - - 10 - - 22.2 1017.5 0.0
25/09:00am SSE 4 6 - - - - 10 Cloudy - 20.6 1017.3 0.0
25/08:30am CALM 0 0 - - - - 10 - - 19.9 1017.0 0.0
25/08:00am CALM 0 0 - - - - 10 - - 18.9 1017.0 0.0
25/07:30am CALM 0 0 - - - - 10 - - 18.2 1016.8 0.0
25/07:00am CALM 0 0 - - - - 10 - - 17.8 1016.5 0.0
25/06:30am SE 3 4 - - - - 10 - - 17.4 1016.3 0.0
25/06:00am ESE 3 4 - - - - 10 Mostly cloudy - 18.0 1016.1 0.0
25/05:30am ESE 4 5 - - - - 10 Partly cloudy - 18.4 1015.9 0.0
25/05:00am ESE 5 6 - - - - 10 Partly cloudy - 18.9 1015.3 0.0
25/04:30am SSE 5 7 - - - - 10 Partly cloudy - 19.7 1015.1 0.0
25/04:00am SSE 7 9 - - - - 10 Cloudy - 20.1 1014.8 0.0
25/03:30am SE 6 10 - - - - 10 Partly cloudy - 19.9 1014.6 0.0
25/03:00am CALM 0 0 - - - - 10 Cloudy - 18.9 1014.3 0.0
25/02:30am CALM 0 0 - - - - 10 - - 19.1 1014.2 0.0
25/02:00am CALM 0 0 - - - - 10 Partly cloudy - 19.3 1014.5 0.0
25/01:30am CALM 0 0 - - - - 10 Partly cloudy - 19.5 1014.9 0.0
25/01:00am CALM 0 0 - - - - 10 Partly cloudy - 19.6 1015.0 0.0
25/12:30am CALM 0 0 - - - - 10 Partly cloudy - 19.8 1015.2 0.0
25/12:00am CALM 0 0 - - - - 10 Cloudy - 19.7 1015.4 0.0
 
Date/Time
EST
Wind Sea
Height
m
Swell Vis
km
Cloud Weather Temp
°C
Press
hPa
Rain since
9am
mm
Dir  Spd
kts
Gust
kts
Height
m
Period
s
Dir
24/11:30pm CALM 0 0 - - - - 10 Partly cloudy - 19.3 1015.5 0.0
24/11:00pm CALM 0 0 - - - - 10 Cloudy - 19.5 1015.6 0.0
24/10:30pm CALM 0 0 - - - - 10 Partly cloudy - 19.0 1015.5 0.0
24/10:00pm CALM 0 0 - - - - 10 - - 19.2 1015.7 0.0
24/09:30pm CALM 0 0 - - - - 10 - - 19.5 1015.7 0.0
24/09:00pm CALM 0 0 - - - - 10 Mostly cloudy - 20.1 1015.6 0.0
24/08:30pm NNE 3 4 - - - - 10 - - 20.3 1015.4 0.0
24/08:00pm CALM 0 4 - - - - 10 - - 20.6 1015.3 0.0
24/07:30pm CALM 0 0 - - - - 10 - - 21.4 1015.3 0.0
24/07:00pm SE 3 6 - - - - 10 - - 22.3 1015.0 0.0
24/06:30pm SE 6 8 - - - - 10 Partly cloudy - 22.6 1014.7 0.0
24/06:00pm ESE 7 10 - - - - 10 Cloudy - 22.8 1014.4 0.0
24/05:30pm SE 7 10 - - - - 10 - - 23.5 1014.2 0.0
24/05:00pm ESE 8 11 - - - - 10 Partly cloudy - 24.0 1013.8 0.0
24/04:30pm ESE 7 11 - - - - 10 Partly cloudy - 24.1 1013.4 0.0
24/04:00pm E 8 10 - - - - 10 Cloudy - 24.2 1013.0 0.0
24/03:30pm E 8 12 - - - - 10 Cloudy - 24.7 1012.8 0.0
24/03:00pm E 7 11 - - - - 10 Mostly cloudy - 24.7 1012.7 0.0
24/02:30pm ESE 6 11 - - - - 10 Partly cloudy - 25.1 1013.1 0.0
24/02:00pm E 8 11 - - - - 10 Cloudy - 24.9 1013.2 0.0
24/01:30pm ESE 6 9 - - - - 10 Cloudy - 24.7 1013.5 0.0
24/01:00pm S 4 7 - - - - 10 Partly cloudy - 24.8 1013.8 0.0
24/12:30pm ESE 6 8 - - - - 10 - - 24.0 1014.4 0.0
24/12:00pm SE 5 8 - - - - 10 Cloudy - 23.9 1015.1 0.0
24/11:30am S 5 8 - - - - 10 - - 23.7 1015.4 0.0
24/11:00am S 4 8 - - - - 10 - - 22.6 1015.9 0.0
24/10:30am SE 7 9 - - - - 10 Partly cloudy - 21.8 1016.1 0.0
24/10:00am SSE 9 13 - - - - 10 - - 21.7 1016.3 0.0
24/09:30am S 7 10 - - - - 10 Partly cloudy - 21.3 1016.2 0.0
24/09:00am S 6 8 - - - - 10 Cloudy - 21.8 1015.9 0.0
24/08:30am SW 5 6 - - - - 10 Partly cloudy - 20.5 1015.8 0.0
24/08:00am SW 5 6 - - - - 10 Partly cloudy - 20.2 1015.5 0.0
24/07:30am SSW 4 6 - - - - 10 Partly cloudy - 19.8 1015.2 0.0
24/07:00am SW 4 5 - - - - 10 Partly cloudy - 19.8 1015.0 0.0
24/06:30am SSW 3 5 - - - - 10 Partly cloudy - 19.8 1014.6 0.0
24/06:00am CALM 0 0 - - - - 10 Cloudy - 19.9 1013.9 0.0
24/05:30am SSW 2 5 - - - - 10 Cloudy - 20.2 1013.4 0.0
24/05:00am SSW 6 8 - - - - 10 Cloudy - 20.4 1013.2 0.0
24/04:30am SSW 5 7 - - - - 10 Cloudy - 20.6 1013.0 0.0
24/04:00am SW 6 8 - - - - 10 Cloudy - 20.8 1012.8 0.0
24/03:30am SW 4 6 - - - - 10 Cloudy - 20.9 1012.9 0.0
24/03:00am CALM 0 0 - - - - 10 Cloudy - 21.2 1013.0 0.0
24/02:30am CALM 0 0 - - - - 10 Cloudy - 21.3 1012.8 0.0
24/02:00am S 2 4 - - - - 10 Cloudy - 21.5 1013.2 0.0
24/01:30am S 5 7 - - - - 10 Cloudy - 21.8 1013.3 0.0
24/01:00am S 5 7 - - - - 10 Partly cloudy - 21.5 1013.5 0.0
24/12:30am S 4 5 - - - - 10 Cloudy - 21.5 1013.5 0.0
24/12:00am CALM 0 0 - - - - 10 Cloudy - 21.5 1013.7 0.0
 
Date/Time
EST
Wind Sea
Height
m
Swell Vis
km
Cloud Weather Temp
°C
Press
hPa
Rain since
9am
mm
Dir  Spd
kts
Gust
kts
Height
m
Period
s
Dir
23/11:30pm CALM 0 0 - - - - 10 Cloudy - 21.8 1013.7 0.0
23/11:00pm SSE 3 4 - - - - 10 Cloudy - 21.8 1013.9 0.0
23/10:30pm SSE 3 4 - - - - 10 Cloudy - 22.0 1013.9 0.0
23/10:00pm S 3 4 - - - - 10 Partly cloudy - 21.9 1013.9 0.0
23/09:30pm S 4 5 - - - - 10 Partly cloudy - 22.0 1013.8 0.0
23/09:00pm CALM 0 0 - - - - 10 Cloudy - 22.2 1013.9 0.0
23/08:30pm CALM 0 0 - - - - 10 Partly cloudy - 22.7 1013.8 0.0
23/08:00pm ESE 1 4 - - - - 10 Partly cloudy - 22.7 1013.7 0.0
23/07:30pm ESE 4 6 - - - - 10 Partly cloudy - 22.7 1013.3 0.0
23/07:00pm S 4 7 - - - - 10 Cloudy - 23.3 1012.8 0.0
23/06:30pm SSE 5 6 - - - - 10 Cloudy - 23.3 1012.2 0.0
23/06:00pm S 3 6 - - - - 10 Cloudy - 23.4 1011.7 0.0
23/05:30pm SSW 4 7 - - - - 10 Cloudy - 23.3 1011.3 0.0
23/05:00pm SSW 8 12 - - - - 10 Partly cloudy - 23.6 1011.2 0.0
23/04:30pm SSW 6 8 - - - - 10 Cloudy - 23.9 1011.0 0.0
23/04:00pm SSW 7 10 - - - - 10 Cloudy - 23.9 1011.0 0.0
23/03:30pm SW 7 11 - - - - 10 Cloudy - 24.1 1011.0 0.0
23/03:00pm SSW 5 9 - - - - 10 Mostly cloudy - 24.1 1011.1 0.0
23/02:30pm SW 9 15 - - - - 10 Partly cloudy - 23.8 1011.5 0.0

Other formats

Comma delimited format used in spreadsheet applications
http://www.bom.gov.au/fwo/IDQ60701/IDQ60701.94186.axf

JavaScript Object Notation format (JSON) in row-major order
http://www.bom.gov.au/fwo/IDQ60701/IDQ60701.94186.json

Data quality

Most of these data are generated automatically and are frequently updated. Quality checks on data are not normally performed. It is possible for incorrect values to appear. Refer to information at About Latest Weather Observations and please check the disclaimer before using these data.